Time;durP1;ratioP1;P1;durP2;ratioP2;P2;SDS_P1;SDS_P2;PMS_P1;PMS_P2;Temp;Humidity;BMP_temperature;BMP_pressure;BME280_temperature;BME280_humidity;BME280_pressure;Samples;Min_cycle;Max_cycle;Signal;HPM_P1;HPM_P2
2023/12/18 08:50:05;;;;;;;19.10;9.37;;;5.00;95.70;;;5.22;60.48;100570.06;4897955;28;97756;-88
2023/12/18 08:53:17;;;;;;;15.30;7.37;;;5.10;95.60;;;5.25;61.25;100557.81;4900034;28;123927;-88
2023/12/18 08:59:19;;;;;;;8.93;6.90;;;5.10;95.60;;;5.36;60.40;100558.91;5015112;23;95969;-86
2023/12/18 09:21:05;;;;;;;12.40;6.87;;;5.20;95.70;;;5.56;60.66;100561.31;4884700;28;96586;-86
2023/12/18 09:23:47;;;;;;;13.40;7.43;;;5.40;96.80;;;5.63;60.72;100562.06;4881229;28;113371;-86
2023/12/18 09:26:30;;;;;;;15.57;9.07;;;4.20;95.80;;;5.67;61.05;100553.13;4874122;28;113455;-87
2023/12/18 09:29:02;;;;;;;12.43;6.90;;;5.30;96.00;;;5.75;60.93;100547.28;4906467;28;122814;-86
2023/12/18 09:32:07;;;;;;;15.30;6.43;;;5.10;96.50;;;5.86;61.20;100542.88;4922103;23;123260;-86
2023/12/18 09:35:33;;;;;;;10.53;6.60;;;8.10;97.60;;;5.93;61.09;100545.50;4846723;29;113906;-87
2023/12/18 09:38:41;;;;;;;11.83;7.30;;;3.20;95.20;;;5.93;61.30;100534.53;4823314;29;113767;-88
2023/12/18 09:58:48;;;;;;;13.80;7.70;;;5.20;95.70;;;6.39;60.01;100508.09;4882277;28;124740;-86
2023/12/18 10:07:09;;;;;;;12.63;6.90;;;6.20;95.80;;;6.66;59.30;100502.06;5659488;23;98652;-86
2023/12/18 10:13:27;;;;;;;22.70;8.70;;;6.30;95.80;;;6.87;59.07;100504.13;5625553;23;98861;-89
2023/12/18 10:22:48;;;;;;;13.10;7.90;;;6.60;95.60;;;7.19;58.53;100489.84;4991197;23;98325;-86
2023/12/18 10:26:12;;;;;;;14.20;7.40;;;6.90;95.60;;;7.30;58.55;100475.19;4843824;28;114097;-87
2023/12/18 10:31:25;;;;;;;14.60;8.37;;;6.90;95.30;;;7.54;58.14;100470.34;4874693;28;97039;-86
2023/12/18 11:05:46;;;;;;;15.47;8.07;;;8.40;93.90;;;9.13;53.59;100422.72;5058626;23;97767;-88
2023/12/18 11:40:53;;;;;;;12.83;7.47;;;10.20;91.60;;;11.05;49.41;100368.56;4893273;28;96119;-89
2023/12/18 11:43:49;;;;;;;12.07;7.00;;;10.30;90.60;;;11.12;49.24;100361.94;4863331;29;113774;-88
2023/12/18 11:53:36;;;;;;;14.37;6.73;;;10.70;90.40;;;11.56;49.22;100353.84;4916899;23;95980;-91
2023/12/18 11:56:23;;;;;;;13.53;6.83;;;10.90;90.50;;;11.88;48.88;100345.19;4892495;28;113887;-88
2023/12/18 11:58:53;;;;;;;11.63;7.30;;;11.10;90.60;;;12.12;48.27;100350.91;4856409;28;122429;-88
2023/12/18 12:01:46;;;;;;;14.33;7.87;;;11.40;90.60;;;12.37;47.69;100336.06;4898270;28;121826;-89
2023/12/18 12:04:16;;;;;;;11.80;7.13;;;11.60;90.10;;;12.56;46.70;100325.13;4874543;28;112469;-90
2023/12/18 12:06:47;;;;;;;17.33;7.67;;;11.80;89.30;;;12.74;46.64;100328.34;4851845;28;113320;-89
2023/12/18 12:09:18;;;;;;;14.60;6.80;;;12.00;89.10;;;12.98;46.52;100322.88;4855074;28;123609;-89
2023/12/18 12:11:58;;;;;;;11.60;6.03;;;12.30;88.80;;;13.21;45.79;100312.94;4846657;28;123207;-88
2023/12/18 12:14:27;;;;;;;10.17;5.60;;;12.50;88.40;;;13.47;45.69;100313.53;4879270;28;113395;-90
2023/12/18 12:17:05;;;;;;;10.87;6.37;;;12.70;88.50;;;13.69;45.50;100305.47;4841351;28;113464;-88
2023/12/18 12:19:37;;;;;;;12.00;6.80;;;11.50;86.90;;;13.93;45.21;100301.84;4821473;29;122859;-88
2023/12/18 12:22:05;;;;;;;10.43;6.50;;;13.20;88.50;;;14.14;44.99;100308.78;4816329;29;124492;-88
2023/12/18 12:24:37;;;;;;;12.70;6.93;;;13.40;87.40;;;14.36;44.47;100287.91;4789431;29;113136;-88
2023/12/18 12:27:06;;;;;;;10.50;6.37;;;13.60;87.60;;;14.60;44.05;100295.38;4781922;29;113385;-91
2023/12/18 12:29:34;;;;;;;12.40;6.30;;;13.90;86.40;;;14.77;43.42;100281.72;4781552;29;122212;-91
2023/12/18 12:32:06;;;;;;;9.87;6.33;;;14.10;85.50;;;14.96;43.20;100279.75;4768570;29;123490;-89
2023/12/18 12:34:35;;;;;;;9.70;6.23;;;14.30;85.20;;;15.17;43.00;100279.34;4771616;29;112707;-89
2023/12/18 12:37:03;;;;;;;12.47;6.33;;;14.50;85.00;;;15.35;42.51;100275.66;4777374;29;115189;-89
2023/12/18 12:39:36;;;;;;;7.83;5.40;;;14.70;84.20;;;15.57;42.01;100282.47;4779071;29;124800;-91
2023/12/18 12:42:06;;;;;;;13.00;6.43;;;14.90;83.90;;;15.75;41.49;100273.22;4758948;29;123428;-92
2023/12/18 12:44:35;;;;;;;14.57;7.50;;;17.20;84.80;;;15.91;40.96;100265.38;4739877;29;112339;-88
2023/12/18 12:47:02;;;;;;;9.03;6.00;;;15.30;81.70;;;16.06;40.74;100267.78;4773884;29;114784;-91
2023/12/18 12:49:29;;;;;;;16.77;6.57;;;15.50;81.10;;;16.22;40.68;100257.13;4777641;29;123554;-90
2023/12/18 12:51:56;;;;;;;13.47;6.17;;;15.70;81.70;;;16.44;40.33;100264.72;4800879;29;123133;-89
2023/12/18 12:54:25;;;;;;;14.47;6.80;;;15.90;80.80;;;16.62;40.04;100262.88;4832526;29;114842;-88
2023/12/18 12:56:51;;;;;;;10.90;6.57;;;17.70;81.80;;;16.80;39.90;100263.03;4870842;28;114046;-88
2023/12/18 12:59:18;;;;;;;10.60;5.93;;;18.10;81.80;;;16.95;39.43;100257.03;4863941;28;123775;-89
2023/12/18 13:01:44;;;;;;;7.40;6.10;;;20.30;83.00;;;17.13;39.21;100257.97;4876479;28;122157;-88
2023/12/18 13:04:13;;;;;;;9.40;6.30;;;16.60;78.60;;;17.28;39.11;100256.75;4868736;28;115072;-89
2023/12/18 13:06:39;;;;;;;8.40;5.33;;;16.80;78.30;;;17.39;38.56;100249.72;4869642;28;113488;-88
2023/12/18 13:09:09;;;;;;;14.03;5.60;;;17.00;77.40;;;17.50;38.27;100253.84;4869079;28;124442;-88
2023/12/18 13:11:38;;;;;;;13.83;6.03;;;17.20;76.70;;;17.62;38.28;100242.06;4868269;28;124012;-88
2023/12/18 13:14:04;;;;;;;8.83;5.97;;;18.10;77.40;;;17.79;38.19;100244.13;4879799;28;113883;-90
2023/12/18 13:16:31;;;;;;;10.33;5.90;;;17.40;76.30;;;17.91;37.77;100247.09;4867551;28;113798;-90
2023/12/18 13:18:57;;;;;;;8.40;5.40;;;17.60;76.00;;;18.04;37.56;100240.53;4856141;28;124349;-90
2023/12/18 13:21:27;;;;;;;8.10;4.63;;;17.80;75.30;;;18.16;37.41;100236.25;4868240;28;122969;-92
2023/12/18 13:23:53;;;;;;;10.43;5.93;;;17.90;74.30;;;18.22;36.88;100240.56;4869025;28;114559;-90
2023/12/18 13:26:23;;;;;;;10.30;5.60;;;18.10;73.70;;;18.25;36.68;100226.72;4870158;28;97049;-89
2023/12/18 13:28:52;;;;;;;8.07;5.37;;;18.20;72.90;;;18.22;36.26;100230.19;4868161;28;123692;-88
2023/12/18 13:31:21;;;;;;;8.27;5.77;;;18.50;72.20;;;18.18;36.40;100225.56;4870701;28;123721;-90
2023/12/18 13:33:47;;;;;;;7.90;5.17;;;18.30;71.30;;;18.09;36.39;100231.16;4868048;28;113532;-90
2023/12/18 13:36:14;;;;;;;8.03;5.90;;;18.30;70.60;;;17.97;35.48;100217.00;4869227;28;113515;-89
2023/12/18 13:38:46;;;;;;;8.73;5.67;;;18.30;68.80;;;17.78;35.99;100223.66;4884441;28;123511;-90
2023/12/18 13:41:12;;;;;;;7.83;5.27;;;18.20;68.40;;;17.61;36.21;100224.47;4847966;28;122378;-93
2023/12/18 13:43:41;;;;;;;8.23;5.40;;;18.10;68.60;;;17.45;36.45;100220.47;4867776;28;113955;-91
2023/12/18 13:46:08;;;;;;;8.50;5.40;;;18.00;68.60;;;17.33;36.67;100228.63;4871543;28;114088;-92
2023/12/18 13:48:34;;;;;;;8.90;5.40;;;17.80;68.20;;;17.17;36.53;100209.53;4854039;28;125048;-88
2023/12/18 13:51:01;;;;;;;14.10;6.00;;;17.60;68.10;;;17.05;36.56;100214.88;4867045;28;123024;-87
2023/12/18 13:53:27;;;;;;;6.10;4.50;;;17.50;68.40;;;16.90;36.45;100215.28;4860960;28;114357;-88
2023/12/18 13:55:54;;;;;;;8.60;5.03;;;17.40;68.40;;;16.74;36.96;100210.09;4866462;28;113867;-88
2023/12/18 13:58:20;;;;;;;6.57;4.80;;;17.20;68.10;;;16.62;36.79;100218.22;4867572;28;124290;-88
2023/12/18 14:00:53;;;;;;;8.70;5.40;;;17.00;68.10;;;16.49;36.97;100210.72;4869496;28;122868;-89
2023/12/18 14:03:19;;;;;;;9.17;5.50;;;16.90;68.00;;;16.33;37.06;100219.50;4862848;28;113970;-89
2023/12/18 14:05:46;;;;;;;7.07;5.30;;;16.70;68.10;;;16.17;37.32;100218.19;4879393;28;112479;-88
2023/12/18 14:08:15;;;;;;;9.07;5.87;;;16.50;68.60;;;16.04;37.42;100208.75;4874011;28;124778;-90
2023/12/18 14:10:44;;;;;;;10.93;6.13;;;16.40;68.10;;;15.90;37.49;100214.38;4873110;28;123225;-89
2023/12/18 14:13:11;;;;;;;6.93;4.77;;;16.30;68.00;;;15.75;37.74;100202.75;4871779;28;115689;-88
2023/12/18 14:15:37;;;;;;;7.17;5.00;;;16.20;68.40;;;15.62;38.19;100207.97;4872760;28;115503;-89
2023/12/18 14:18:08;;;;;;;9.37;5.20;;;16.00;69.20;;;15.50;38.19;100206.84;4873289;28;124563;-88
2023/12/18 14:20:36;;;;;;;8.20;5.07;;;15.90;68.80;;;15.35;38.31;100199.66;4874853;28;122479;-89
2023/12/18 14:23:02;;;;;;;7.13;5.30;;;17.20;70.10;;;15.23;38.67;100208.50;4887790;28;114276;-89
2023/12/18 14:25:31;;;;;;;8.00;5.10;;;15.60;69.20;;;15.10;38.42;100207.38;4864872;28;112875;-88
2023/12/18 14:27:57;;;;;;;8.33;4.73;;;15.50;68.80;;;15.01;38.74;100206.44;4870816;28;123622;-88
2023/12/18 14:30:27;;;;;;;9.30;5.30;;;15.40;69.20;;;14.89;39.12;100206.94;4883391;28;124481;-88
2023/12/18 14:32:58;;;;;;;6.87;5.17;;;15.20;69.10;;;14.76;39.18;100204.97;4853609;28;112510;-87
2023/12/18 14:35:29;;;;;;;8.37;5.00;;;15.10;70.00;;;14.65;39.42;100200.72;4883033;28;113321;-89
2023/12/18 14:37:56;;;;;;;6.80;4.80;;;15.00;70.00;;;14.56;39.67;100215.31;4860569;28;123519;-87
2023/12/18 14:40:24;;;;;;;9.10;5.77;;;14.90;70.10;;;14.43;39.76;100210.50;4878163;28;123718;-87
2023/12/18 14:42:51;;;;;;;8.40;5.57;;;14.70;70.50;;;14.35;39.75;100208.41;4876428;28;114072;-87
2023/12/18 14:45:20;;;;;;;8.97;5.70;;;14.70;70.90;;;14.27;39.88;100211.88;4863685;28;113473;-89
2023/12/18 14:47:47;;;;;;;9.90;5.80;;;14.60;70.80;;;14.17;40.41;100212.84;4865004;28;122849;-89
2023/12/18 14:50:46;;;;;;;7.07;5.10;;;14.40;71.00;;;14.04;40.87;100199.72;4881509;28;123168;-88
2023/12/18 14:53:12;;;;;;;7.83;4.70;;;14.30;71.00;;;13.96;40.75;100201.22;4810389;29;113921;-88
2023/12/18 14:55:40;;;;;;;7.03;4.60;;;14.20;71.50;;;13.88;40.72;100188.00;4840110;29;114519;-87
2023/12/18 14:58:11;;;;;;;8.03;5.30;;;14.10;71.50;;;13.79;40.88;100198.97;4817288;29;123238;-87
2023/12/18 15:00:39;;;;;;;9.80;5.80;;;14.00;71.20;;;13.69;40.93;100186.03;4845470;29;122755;-87
2023/12/18 15:03:10;;;;;;;12.37;4.97;;;13.90;72.00;;;13.59;41.23;100168.69;4827121;29;114410;-88
2023/12/18 15:05:51;;;;;;;10.50;5.50;;;13.80;71.50;;;13.53;41.35;100190.16;4810968;29;114823;-89
2023/12/18 15:08:20;;;;;;;8.03;5.57;;;13.70;71.70;;;13.42;41.47;100185.88;4807742;29;123648;-89
2023/12/18 15:10:49;;;;;;;8.03;5.43;;;13.60;71.80;;;13.34;41.70;100180.97;4790410;29;122885;-87
2023/12/18 15:13:23;;;;;;;8.47;4.60;;;13.50;72.20;;;13.24;41.82;100192.97;4775385;29;113702;-88
2023/12/18 15:15:50;;;;;;;9.10;5.33;;;13.40;72.60;;;13.16;41.95;100183.34;4752694;29;113214;-89
2023/12/18 15:18:48;;;;;;;9.27;5.20;;;13.30;73.40;;;13.06;42.20;100183.50;4735601;29;122286;-87
2023/12/18 15:21:23;;;;;;;15.20;6.47;;;13.20;72.80;;;12.99;42.31;100177.47;4706011;29;122072;-90
2023/12/18 15:24:03;;;;;;;9.27;5.20;;;13.10;73.50;;;12.92;42.55;100179.75;4693245;30;113909;-89
2023/12/18 15:26:29;;;;;;;6.70;4.60;;;13.00;73.50;;;12.83;42.73;100185.94;4699530;30;113208;-87
2023/12/18 15:29:06;;;;;;;7.93;5.13;;;12.90;73.70;;;12.76;42.96;100184.63;4690651;30;124120;-88
2023/12/18 15:31:40;;;;;;;10.83;6.30;;;12.80;73.80;;;12.68;43.09;100188.91;4721692;29;123313;-87
2023/12/18 15:34:13;;;;;;;11.17;6.20;;;12.80;74.10;;;12.59;43.30;100182.31;4705158;29;112101;-88
2023/12/18 15:36:47;;;;;;;9.80;5.90;;;12.70;74.30;;;12.48;43.39;100175.22;4699369;29;112425;-89
2023/12/18 15:39:24;;;;;;;8.80;5.50;;;12.60;74.50;;;12.37;43.81;100172.53;4711641;29;122313;-89
2023/12/18 15:42:50;;;;;;;12.57;6.33;;;12.50;74.90;;;12.24;43.92;100173.19;4712998;29;122600;-89
2023/12/18 15:46:01;;;;;;;7.50;4.93;;;12.40;75.00;;;12.14;44.40;100178.81;4716810;29;112100;-90
2023/12/18 15:49:11;;;;;;;8.63;5.60;;;12.40;75.50;;;12.05;44.35;100175.84;4735843;29;113932;-92
2023/12/18 16:01:28;;;;;;;10.83;7.10;;;11.80;76.90;;;11.66;45.37;100165.56;4873373;28;97365;-89
2023/12/18 16:04:54;;;;;;;11.67;6.40;;;11.70;78.00;;;11.55;46.23;100154.81;4866715;29;122347;-88
2023/12/18 16:08:38;;;;;;;13.40;8.03;;;11.70;77.70;;;11.43;46.27;100146.88;4872732;28;123252;-91
2023/12/18 16:12:10;;;;;;;12.73;7.70;;;11.50;78.10;;;11.33;46.49;100150.50;4844420;29;114663;-86
2023/12/18 16:15:03;;;;;;;13.30;7.37;;;11.40;78.60;;;11.22;47.12;100148.91;4791787;29;114816;-88
2023/12/18 16:22:07;;;;;;;21.93;7.57;;;11.20;79.40;;;11.05;47.33;100157.56;4726640;29;124377;-88
2023/12/18 16:25:12;;;;;;;13.03;7.70;;;11.30;80.00;;;10.97;47.81;100161.72;4771232;29;114156;-89
2023/12/18 16:28:26;;;;;;;12.53;7.20;;;11.00;80.50;;;10.89;47.92;100156.78;4760620;29;112439;-87
2023/12/18 16:31:37;;;;;;;14.77;7.83;;;11.00;80.70;;;10.83;48.22;100161.50;4760185;29;124092;-87
2023/12/18 16:35:01;;;;;;;14.40;8.13;;;10.90;81.10;;;10.77;48.29;100162.63;4755008;29;124545;-87
2023/12/18 16:38:00;;;;;;;17.23;8.47;;;10.80;81.40;;;10.69;48.57;100159.56;4785237;29;115095;-87
2023/12/18 16:41:51;;;;;;;15.27;8.00;;;13.10;84.10;;;10.61;48.76;100158.22;4711908;29;114964;-86
2023/12/18 16:45:21;;;;;;;15.27;8.20;;;10.60;82.20;;;10.55;49.10;100165.69;4745379;29;123636;-87
2023/12/18 16:48:09;;;;;;;17.23;9.50;;;10.60;82.70;;;10.48;49.36;100153.28;4753563;29;124095;-87
2023/12/18 16:51:31;;;;;;;13.40;8.40;;;10.50;82.90;;;10.43;49.53;100156.88;4780491;29;114206;-86
2023/12/18 16:54:44;;;;;;;14.67;8.47;;;10.50;83.40;;;10.36;49.79;100153.56;4790676;29;114867;-86
2023/12/18 16:57:31;;;;;;;19.20;8.30;;;10.40;83.50;;;10.34;50.18;100153.00;4786088;29;122674;-87
2023/12/18 17:00:31;;;;;;;14.60;8.40;;;10.30;83.70;;;10.28;50.07;100157.69;4756824;29;123318;-88
2023/12/18 17:03:31;;;;;;;11.87;7.87;;;10.30;84.20;;;10.25;49.81;100154.63;4742067;29;115462;-87
2023/12/18 17:07:38;;;;;;;11.40;7.80;;;10.20;84.20;;;10.15;50.27;100158.22;4717562;29;115543;-87
2023/12/18 17:32:33;;;;;;;13.57;8.80;;;9.70;87.00;;;9.73;51.79;100138.06;4999276;23;96525;-88
2023/12/18 17:36:05;;;;;;;12.60;7.77;;;9.70;87.90;;;9.67;51.66;100133.63;4955501;23;122539;-87
2023/12/18 18:13:13;;;;;;;14.00;8.60;;;9.10;89.90;;;9.20;53.08;100140.13;4870957;29;97741;-86
2023/12/18 18:16:11;;;;;;;14.23;8.00;;;9.20;90.10;;;9.18;53.31;100135.97;4872739;28;124676;-87
2023/12/18 18:19:24;;;;;;;15.50;8.50;;;9.00;90.30;;;9.10;53.43;100144.78;4848879;29;121792;-88
2023/12/18 18:38:57;;;;;;;14.23;9.07;;;9.70;90.90;;;8.85;54.20;100154.59;4818721;29;114218;-86
2023/12/18 19:15:05;;;;;;;32.80;12.97;;;8.50;91.40;;;8.65;55.96;100159.97;5242879;23;98729;-88
2023/12/18 19:47:26;;;;;;;16.60;8.73;;;8.20;92.00;;;8.24;55.94;100177.00;954147;23;98740;-86
2023/12/18 19:55:45;;;;;;;13.50;8.57;;;8.60;92.30;;;8.13;56.11;100189.03;4943783;23;96618;-86
2023/12/18 19:58:32;;;;;;;16.40;9.20;;;8.00;92.60;;;8.08;56.02;100165.03;4827256;29;114740;-84
2023/12/18 20:01:18;;;;;;;14.10;8.27;;;6.90;92.30;;;8.07;56.29;100162.56;4868152;28;124166;-86
2023/12/18 20:04:59;;;;;;;18.70;8.60;;;7.90;92.60;;;8.00;56.12;100156.44;4841023;28;123553;-86
2023/12/18 20:22:26;;;;;;;18.20;10.20;;;7.80;93.10;;;8.03;57.18;100153.97;5399387;23;98803;-85
